sensor_id;sensor_type;location;lat;lon;timestamp;P1;durP1;ratioP1;P2;durP2;ratioP2
65879;SDS011;52661;51.364;6.054;2023-04-06T00:00:59;14.80;;;6.10;;
65879;SDS011;52661;51.364;6.054;2023-04-06T00:03:24;13.93;;;6.00;;
65879;SDS011;52661;51.364;6.054;2023-04-06T00:05:50;12.68;;;5.32;;
65879;SDS011;52661;51.364;6.054;2023-04-06T00:08:15;13.43;;;5.32;;
65879;SDS011;52661;51.364;6.054;2023-04-06T00:10:41;11.83;;;5.43;;
65879;SDS011;52661;51.364;6.054;2023-04-06T00:13:06;13.90;;;5.53;;
65879;SDS011;52661;51.364;6.054;2023-04-06T00:15:32;11.65;;;5.72;;
65879;SDS011;52661;51.364;6.054;2023-04-06T00:17:58;12.95;;;6.10;;
65879;SDS011;52661;51.364;6.054;2023-04-06T00:20:23;14.03;;;5.37;;
65879;SDS011;52661;51.364;6.054;2023-04-06T00:22:48;13.23;;;5.35;;
65879;SDS011;52661;51.364;6.054;2023-04-06T00:25:14;12.73;;;6.03;;
65879;SDS011;52661;51.364;6.054;2023-04-06T00:27:40;11.88;;;5.57;;
65879;SDS011;52661;51.364;6.054;2023-04-06T00:30:06;15.98;;;5.82;;
65879;SDS011;52661;51.364;6.054;2023-04-06T00:32:33;13.13;;;5.53;;
65879;SDS011;52661;51.364;6.054;2023-04-06T00:34:59;14.70;;;6.82;;
65879;SDS011;52661;51.364;6.054;2023-04-06T00:37:26;13.05;;;5.32;;
65879;SDS011;52661;51.364;6.054;2023-04-06T00:39:52;11.13;;;5.18;;
65879;SDS011;52661;51.364;6.054;2023-04-06T00:42:17;11.53;;;5.47;;
65879;SDS011;52661;51.364;6.054;2023-04-06T00:44:49;11.65;;;5.05;;
65879;SDS011;52661;51.364;6.054;2023-04-06T00:47:15;12.82;;;5.30;;
65879;SDS011;52661;51.364;6.054;2023-04-06T00:49:41;8.97;;;4.30;;
65879;SDS011;52661;51.364;6.054;2023-04-06T00:52:06;12.20;;;5.00;;
65879;SDS011;52661;51.364;6.054;2023-04-06T00:54:31;10.63;;;4.47;;
65879;SDS011;52661;51.364;6.054;2023-04-06T00:56:56;14.33;;;5.17;;
65879;SDS011;52661;51.364;6.054;2023-04-06T00:59:22;13.48;;;5.00;;
65879;SDS011;52661;51.364;6.054;2023-04-06T01:01:48;12.55;;;5.40;;
65879;SDS011;52661;51.364;6.054;2023-04-06T01:04:13;11.20;;;4.83;;
65879;SDS011;52661;51.364;6.054;2023-04-06T01:06:38;12.83;;;5.27;;
65879;SDS011;52661;51.364;6.054;2023-04-06T01:09:03;11.65;;;4.97;;
65879;SDS011;52661;51.364;6.054;2023-04-06T01:11:29;13.67;;;5.50;;
65879;SDS011;52661;51.364;6.054;2023-04-06T01:13:55;13.25;;;5.47;;
65879;SDS011;52661;51.364;6.054;2023-04-06T01:16:20;13.30;;;5.95;;
65879;SDS011;52661;51.364;6.054;2023-04-06T01:18:45;12.77;;;5.55;;
65879;SDS011;52661;51.364;6.054;2023-04-06T01:21:11;12.73;;;6.07;;
65879;SDS011;52661;51.364;6.054;2023-04-06T01:23:42;12.10;;;5.63;;
65879;SDS011;52661;51.364;6.054;2023-04-06T01:26:09;13.98;;;6.10;;
65879;SDS011;52661;51.364;6.054;2023-04-06T01:28:34;12.13;;;5.55;;
65879;SDS011;52661;51.364;6.054;2023-04-06T01:30:59;14.47;;;6.13;;
65879;SDS011;52661;51.364;6.054;2023-04-06T01:33:25;14.50;;;6.23;;
65879;SDS011;52661;51.364;6.054;2023-04-06T01:35:50;13.50;;;5.37;;
65879;SDS011;52661;51.364;6.054;2023-04-06T01:38:15;13.50;;;5.07;;
65879;SDS011;52661;51.364;6.054;2023-04-06T01:40:41;15.67;;;5.80;;
65879;SDS011;52661;51.364;6.054;2023-04-06T01:43:06;12.90;;;5.83;;
65879;SDS011;52661;51.364;6.054;2023-04-06T01:45:31;13.97;;;6.53;;
65879;SDS011;52661;51.364;6.054;2023-04-06T01:47:57;15.13;;;6.10;;
65879;SDS011;52661;51.364;6.054;2023-04-06T01:50:22;15.43;;;6.40;;
65879;SDS011;52661;51.364;6.054;2023-04-06T01:52:47;16.83;;;6.45;;
65879;SDS011;52661;51.364;6.054;2023-04-06T01:55:13;17.20;;;6.50;;
65879;SDS011;52661;51.364;6.054;2023-04-06T01:57:38;13.10;;;6.23;;
65879;SDS011;52661;51.364;6.054;2023-04-06T02:00:03;14.73;;;6.33;;
65879;SDS011;52661;51.364;6.054;2023-04-06T02:02:29;15.43;;;6.18;;
65879;SDS011;52661;51.364;6.054;2023-04-06T02:04:55;12.63;;;5.57;;
65879;SDS011;52661;51.364;6.054;2023-04-06T02:07:20;16.10;;;5.95;;
65879;SDS011;52661;51.364;6.054;2023-04-06T02:09:46;16.77;;;6.00;;
65879;SDS011;52661;51.364;6.054;2023-04-06T02:12:11;14.77;;;6.50;;
65879;SDS011;52661;51.364;6.054;2023-04-06T02:14:36;15.97;;;8.00;;
65879;SDS011;52661;51.364;6.054;2023-04-06T02:17:02;15.98;;;6.47;;
65879;SDS011;52661;51.364;6.054;2023-04-06T02:19:27;18.07;;;6.90;;
65879;SDS011;52661;51.364;6.054;2023-04-06T02:21:52;13.85;;;6.18;;
65879;SDS011;52661;51.364;6.054;2023-04-06T02:24:18;15.77;;;5.90;;
65879;SDS011;52661;51.364;6.054;2023-04-06T02:26:43;17.27;;;5.87;;
65879;SDS011;52661;51.364;6.054;2023-04-06T02:29:08;12.37;;;5.20;;
65879;SDS011;52661;51.364;6.054;2023-04-06T02:31:34;11.85;;;4.65;;
65879;SDS011;52661;51.364;6.054;2023-04-06T02:34:00;11.90;;;4.97;;
65879;SDS011;52661;51.364;6.054;2023-04-06T02:36:25;13.17;;;5.07;;
65879;SDS011;52661;51.364;6.054;2023-04-06T02:38:51;12.32;;;4.80;;
65879;SDS011;52661;51.364;6.054;2023-04-06T02:41:16;12.70;;;5.65;;
65879;SDS011;52661;51.364;6.054;2023-04-06T02:43:42;14.02;;;5.53;;
65879;SDS011;52661;51.364;6.054;2023-04-06T02:46:07;14.07;;;5.00;;
65879;SDS011;52661;51.364;6.054;2023-04-06T02:48:32;12.60;;;6.57;;
65879;SDS011;52661;51.364;6.054;2023-04-06T02:51:01;11.93;;;5.78;;
65879;SDS011;52661;51.364;6.054;2023-04-06T02:53:26;13.98;;;5.65;;
65879;SDS011;52661;51.364;6.054;2023-04-06T02:55:52;14.30;;;5.72;;
65879;SDS011;52661;51.364;6.054;2023-04-06T02:58:17;9.77;;;4.93;;
65879;SDS011;52661;51.364;6.054;2023-04-06T03:00:43;12.77;;;4.87;;
65879;SDS011;52661;51.364;6.054;2023-04-06T03:03:08;12.23;;;5.00;;
65879;SDS011;52661;51.364;6.054;2023-04-06T03:05:33;14.07;;;5.17;;
65879;SDS011;52661;51.364;6.054;2023-04-06T03:07:59;12.60;;;5.53;;
65879;SDS011;52661;51.364;6.054;2023-04-06T03:10:24;11.23;;;4.77;;
65879;SDS011;52661;51.364;6.054;2023-04-06T03:12:50;12.35;;;5.70;;
65879;SDS011;52661;51.364;6.054;2023-04-06T03:15:15;12.80;;;5.43;;
65879;SDS011;52661;51.364;6.054;2023-04-06T03:17:40;11.40;;;4.97;;
65879;SDS011;52661;51.364;6.054;2023-04-06T03:20:06;9.47;;;4.47;;
65879;SDS011;52661;51.364;6.054;2023-04-06T03:22:31;12.43;;;5.88;;
65879;SDS011;52661;51.364;6.054;2023-04-06T03:24:56;13.97;;;5.87;;
65879;SDS011;52661;51.364;6.054;2023-04-06T03:27:22;12.80;;;5.20;;
65879;SDS011;52661;51.364;6.054;2023-04-06T03:29:47;14.37;;;5.70;;
65879;SDS011;52661;51.364;6.054;2023-04-06T03:32:12;13.33;;;4.80;;
65879;SDS011;52661;51.364;6.054;2023-04-06T03:34:38;16.73;;;4.83;;
65879;SDS011;52661;51.364;6.054;2023-04-06T03:37:04;13.50;;;5.15;;
65879;SDS011;52661;51.364;6.054;2023-04-06T03:39:30;17.02;;;5.43;;
65879;SDS011;52661;51.364;6.054;2023-04-06T03:41:55;12.63;;;5.72;;
65879;SDS011;52661;51.364;6.054;2023-04-06T03:44:20;15.07;;;5.43;;
65879;SDS011;52661;51.364;6.054;2023-04-06T03:46:46;10.70;;;4.40;;
65879;SDS011;52661;51.364;6.054;2023-04-06T03:49:11;15.13;;;5.27;;
65879;SDS011;52661;51.364;6.054;2023-04-06T03:51:36;14.95;;;6.03;;
65879;SDS011;52661;51.364;6.054;2023-04-06T03:54:02;12.85;;;5.70;;
65879;SDS011;52661;51.364;6.054;2023-04-06T03:56:27;12.82;;;5.47;;
65879;SDS011;52661;51.364;6.054;2023-04-06T03:58:52;10.83;;;4.60;;
65879;SDS011;52661;51.364;6.054;2023-04-06T04:01:18;13.20;;;5.18;;
65879;SDS011;52661;51.364;6.054;2023-04-06T04:03:43;11.13;;;4.60;;
65879;SDS011;52661;51.364;6.054;2023-04-06T04:06:08;16.02;;;5.10;;
65879;SDS011;52661;51.364;6.054;2023-04-06T04:08:34;12.90;;;5.27;;
65879;SDS011;52661;51.364;6.054;2023-04-06T04:11:00;11.95;;;4.97;;
65879;SDS011;52661;51.364;6.054;2023-04-06T04:13:25;13.52;;;4.90;;
65879;SDS011;52661;51.364;6.054;2023-04-06T04:15:51;13.80;;;5.17;;
65879;SDS011;52661;51.364;6.054;2023-04-06T04:18:16;13.80;;;5.37;;
65879;SDS011;52661;51.364;6.054;2023-04-06T04:20:41;16.53;;;6.00;;
65879;SDS011;52661;51.364;6.054;2023-04-06T04:23:06;13.30;;;4.77;;
65879;SDS011;52661;51.364;6.054;2023-04-06T04:25:32;14.87;;;5.07;;
65879;SDS011;52661;51.364;6.054;2023-04-06T04:27:57;16.80;;;4.63;;
65879;SDS011;52661;51.364;6.054;2023-04-06T04:30:22;12.20;;;5.00;;
65879;SDS011;52661;51.364;6.054;2023-04-06T04:32:48;13.05;;;5.95;;
65879;SDS011;52661;51.364;6.054;2023-04-06T04:35:13;11.93;;;4.50;;
65879;SDS011;52661;51.364;6.054;2023-04-06T04:37:40;12.23;;;5.28;;
65879;SDS011;52661;51.364;6.054;2023-04-06T04:40:06;14.68;;;5.10;;
65879;SDS011;52661;51.364;6.054;2023-04-06T04:42:31;13.10;;;5.25;;
65879;SDS011;52661;51.364;6.054;2023-04-06T04:44:57;10.40;;;4.67;;
65879;SDS011;52661;51.364;6.054;2023-04-06T04:47:22;12.87;;;6.03;;
65879;SDS011;52661;51.364;6.054;2023-04-06T04:49:47;16.60;;;6.37;;
65879;SDS011;52661;51.364;6.054;2023-04-06T04:52:13;13.03;;;5.33;;
65879;SDS011;52661;51.364;6.054;2023-04-06T04:54:38;12.30;;;4.40;;
65879;SDS011;52661;51.364;6.054;2023-04-06T04:57:05;12.00;;;5.68;;
65879;SDS011;52661;51.364;6.054;2023-04-06T04:59:31;12.95;;;5.03;;
65879;SDS011;52661;51.364;6.054;2023-04-06T05:01:56;17.30;;;7.10;;
65879;SDS011;52661;51.364;6.054;2023-04-06T05:04:22;15.93;;;5.82;;
65879;SDS011;52661;51.364;6.054;2023-04-06T05:06:48;15.63;;;6.20;;
65879;SDS011;52661;51.364;6.054;2023-04-06T05:09:13;14.17;;;5.93;;
65879;SDS011;52661;51.364;6.054;2023-04-06T05:11:38;14.23;;;5.77;;
65879;SDS011;52661;51.364;6.054;2023-04-06T05:14:04;13.77;;;7.97;;
65879;SDS011;52661;51.364;6.054;2023-04-06T05:16:31;13.57;;;5.63;;
65879;SDS011;52661;51.364;6.054;2023-04-06T05:18:56;11.07;;;5.10;;
65879;SDS011;52661;51.364;6.054;2023-04-06T05:21:21;13.50;;;5.93;;
65879;SDS011;52661;51.364;6.054;2023-04-06T05:23:47;14.45;;;5.60;;
65879;SDS011;52661;51.364;6.054;2023-04-06T05:26:12;14.90;;;6.27;;
65879;SDS011;52661;51.364;6.054;2023-04-06T05:28:37;15.38;;;5.95;;
65879;SDS011;52661;51.364;6.054;2023-04-06T05:31:03;15.57;;;5.45;;
65879;SDS011;52661;51.364;6.054;2023-04-06T05:33:28;13.43;;;6.15;;
65879;SDS011;52661;51.364;6.054;2023-04-06T05:35:54;14.32;;;7.20;;
65879;SDS011;52661;51.364;6.054;2023-04-06T05:38:19;14.27;;;5.85;;
65879;SDS011;52661;51.364;6.054;2023-04-06T05:40:45;13.63;;;5.47;;
65879;SDS011;52661;51.364;6.054;2023-04-06T05:43:10;12.07;;;5.57;;
65879;SDS011;52661;51.364;6.054;2023-04-06T05:45:35;12.87;;;5.30;;
65879;SDS011;52661;51.364;6.054;2023-04-06T05:48:01;13.77;;;5.40;;
65879;SDS011;52661;51.364;6.054;2023-04-06T05:50:27;13.77;;;5.00;;
65879;SDS011;52661;51.364;6.054;2023-04-06T05:52:53;13.82;;;4.53;;
65879;SDS011;52661;51.364;6.054;2023-04-06T05:55:19;15.07;;;5.60;;
65879;SDS011;52661;51.364;6.054;2023-04-06T05:57:44;12.63;;;4.93;;
65879;SDS011;52661;51.364;6.054;2023-04-06T06:00:10;14.38;;;5.30;;
65879;SDS011;52661;51.364;6.054;2023-04-06T06:02:35;14.23;;;6.55;;
65879;SDS011;52661;51.364;6.054;2023-04-06T06:05:01;14.07;;;5.97;;
65879;SDS011;52661;51.364;6.054;2023-04-06T06:07:27;14.90;;;5.57;;
65879;SDS011;52661;51.364;6.054;2023-04-06T06:09:52;14.02;;;5.18;;
65879;SDS011;52661;51.364;6.054;2023-04-06T06:12:21;15.55;;;5.47;;
65879;SDS011;52661;51.364;6.054;2023-04-06T06:14:47;10.97;;;4.70;;
65879;SDS011;52661;51.364;6.054;2023-04-06T06:17:12;13.57;;;5.13;;
65879;SDS011;52661;51.364;6.054;2023-04-06T06:19:37;15.23;;;7.05;;
65879;SDS011;52661;51.364;6.054;2023-04-06T06:22:02;12.67;;;4.97;;
65879;SDS011;52661;51.364;6.054;2023-04-06T06:24:28;16.17;;;5.43;;
65879;SDS011;52661;51.364;6.054;2023-04-06T06:26:53;15.63;;;5.68;;
65879;SDS011;52661;51.364;6.054;2023-04-06T06:29:19;18.23;;;7.38;;
65879;SDS011;52661;51.364;6.054;2023-04-06T06:31:44;17.05;;;5.35;;
65879;SDS011;52661;51.364;6.054;2023-04-06T06:34:09;13.82;;;5.30;;
65879;SDS011;52661;51.364;6.054;2023-04-06T06:36:35;13.07;;;5.50;;
65879;SDS011;52661;51.364;6.054;2023-04-06T06:39:00;12.80;;;5.35;;
65879;SDS011;52661;51.364;6.054;2023-04-06T06:41:28;18.08;;;6.93;;
65879;SDS011;52661;51.364;6.054;2023-04-06T06:43:53;12.53;;;5.30;;
65879;SDS011;52661;51.364;6.054;2023-04-06T06:46:19;13.00;;;5.03;;
65879;SDS011;52661;51.364;6.054;2023-04-06T06:48:45;14.25;;;5.45;;
65879;SDS011;52661;51.364;6.054;2023-04-06T06:51:10;15.40;;;5.70;;
65879;SDS011;52661;51.364;6.054;2023-04-06T06:53:36;15.60;;;5.75;;
65879;SDS011;52661;51.364;6.054;2023-04-06T06:56:02;15.88;;;5.72;;
65879;SDS011;52661;51.364;6.054;2023-04-06T06:58:27;17.52;;;7.10;;
65879;SDS011;52661;51.364;6.054;2023-04-06T07:00:56;15.10;;;5.83;;
65879;SDS011;52661;51.364;6.054;2023-04-06T07:03:22;13.90;;;5.68;;
65879;SDS011;52661;51.364;6.054;2023-04-06T07:05:48;15.43;;;5.73;;
65879;SDS011;52661;51.364;6.054;2023-04-06T07:08:18;15.75;;;5.78;;
65879;SDS011;52661;51.364;6.054;2023-04-06T07:10:46;14.18;;;5.68;;
65879;SDS011;52661;51.364;6.054;2023-04-06T07:13:12;12.38;;;5.28;;
65879;SDS011;52661;51.364;6.054;2023-04-06T07:15:43;15.23;;;5.32;;
65879;SDS011;52661;51.364;6.054;2023-04-06T07:18:08;15.38;;;7.47;;
65879;SDS011;52661;51.364;6.054;2023-04-06T07:20:33;18.70;;;5.23;;
65879;SDS011;52661;51.364;6.054;2023-04-06T07:22:58;14.43;;;5.37;;
65879;SDS011;52661;51.364;6.054;2023-04-06T07:25:24;13.70;;;5.82;;
65879;SDS011;52661;51.364;6.054;2023-04-06T07:27:49;21.43;;;5.87;;
65879;SDS011;52661;51.364;6.054;2023-04-06T07:30:14;13.35;;;5.18;;
65879;SDS011;52661;51.364;6.054;2023-04-06T07:32:40;15.80;;;6.13;;
65879;SDS011;52661;51.364;6.054;2023-04-06T07:35:05;18.47;;;6.53;;
65879;SDS011;52661;51.364;6.054;2023-04-06T07:37:31;15.43;;;4.82;;
65879;SDS011;52661;51.364;6.054;2023-04-06T07:39:56;15.33;;;5.73;;
65879;SDS011;52661;51.364;6.054;2023-04-06T07:42:21;13.00;;;5.47;;
65879;SDS011;52661;51.364;6.054;2023-04-06T07:44:48;16.83;;;5.37;;
65879;SDS011;52661;51.364;6.054;2023-04-06T07:47:13;15.65;;;4.38;;
65879;SDS011;52661;51.364;6.054;2023-04-06T07:49:38;13.85;;;4.82;;
65879;SDS011;52661;51.364;6.054;2023-04-06T07:52:03;14.67;;;4.80;;
65879;SDS011;52661;51.364;6.054;2023-04-06T07:54:29;13.55;;;4.68;;
65879;SDS011;52661;51.364;6.054;2023-04-06T07:56:54;9.88;;;4.50;;
65879;SDS011;52661;51.364;6.054;2023-04-06T07:59:20;19.00;;;6.17;;
65879;SDS011;52661;51.364;6.054;2023-04-06T08:01:45;14.25;;;4.82;;
65879;SDS011;52661;51.364;6.054;2023-04-06T08:04:10;14.02;;;5.13;;
65879;SDS011;52661;51.364;6.054;2023-04-06T08:06:36;14.83;;;5.37;;
65879;SDS011;52661;51.364;6.054;2023-04-06T08:09:01;14.55;;;5.03;;
65879;SDS011;52661;51.364;6.054;2023-04-06T08:11:27;15.88;;;5.60;;
65879;SDS011;52661;51.364;6.054;2023-04-06T08:13:53;13.90;;;4.70;;
65879;SDS011;52661;51.364;6.054;2023-04-06T08:16:19;14.68;;;5.18;;
65879;SDS011;52661;51.364;6.054;2023-04-06T08:18:44;17.08;;;5.35;;
65879;SDS011;52661;51.364;6.054;2023-04-06T08:21:10;13.23;;;5.13;;
65879;SDS011;52661;51.364;6.054;2023-04-06T08:23:35;12.75;;;5.22;;
65879;SDS011;52661;51.364;6.054;2023-04-06T08:26:00;13.73;;;5.43;;
65879;SDS011;52661;51.364;6.054;2023-04-06T08:28:25;12.93;;;5.40;;
65879;SDS011;52661;51.364;6.054;2023-04-06T08:30:51;14.87;;;4.50;;
65879;SDS011;52661;51.364;6.054;2023-04-06T08:33:16;14.45;;;4.60;;
65879;SDS011;52661;51.364;6.054;2023-04-06T08:35:41;10.77;;;3.88;;
65879;SDS011;52661;51.364;6.054;2023-04-06T08:38:07;12.97;;;4.70;;
65879;SDS011;52661;51.364;6.054;2023-04-06T08:40:39;16.30;;;4.70;;
65879;SDS011;52661;51.364;6.054;2023-04-06T08:43:06;10.85;;;4.15;;
65879;SDS011;52661;51.364;6.054;2023-04-06T08:45:36;12.80;;;6.13;;
65879;SDS011;52661;51.364;6.054;2023-04-06T08:48:02;13.93;;;5.57;;
65879;SDS011;52661;51.364;6.054;2023-04-06T08:50:29;16.73;;;5.10;;
65879;SDS011;52661;51.364;6.054;2023-04-06T08:52:55;14.18;;;4.95;;
65879;SDS011;52661;51.364;6.054;2023-04-06T08:55:20;11.50;;;5.35;;
65879;SDS011;52661;51.364;6.054;2023-04-06T08:57:47;14.65;;;5.28;;
65879;SDS011;52661;51.364;6.054;2023-04-06T09:00:13;14.38;;;4.50;;
65879;SDS011;52661;51.364;6.054;2023-04-06T09:02:39;17.45;;;4.75;;
65879;SDS011;52661;51.364;6.054;2023-04-06T09:05:08;15.63;;;5.47;;
65879;SDS011;52661;51.364;6.054;2023-04-06T09:07:37;13.93;;;4.55;;
65879;SDS011;52661;51.364;6.054;2023-04-06T09:10:03;14.18;;;6.13;;
65879;SDS011;52661;51.364;6.054;2023-04-06T09:12:32;14.85;;;5.00;;
65879;SDS011;52661;51.364;6.054;2023-04-06T09:14:59;15.68;;;5.85;;
65879;SDS011;52661;51.364;6.054;2023-04-06T09:17:31;13.30;;;4.65;;
65879;SDS011;52661;51.364;6.054;2023-04-06T09:20:02;14.02;;;5.65;;
65879;SDS011;52661;51.364;6.054;2023-04-06T09:22:37;16.77;;;5.85;;
65879;SDS011;52661;51.364;6.054;2023-04-06T09:25:03;9.57;;;3.88;;
65879;SDS011;52661;51.364;6.054;2023-04-06T09:27:30;17.55;;;5.40;;
65879;SDS011;52661;51.364;6.054;2023-04-06T09:30:03;11.88;;;4.65;;
65879;SDS011;52661;51.364;6.054;2023-04-06T09:32:32;20.52;;;5.80;;
65879;SDS011;52661;51.364;6.054;2023-04-06T09:35:09;11.40;;;4.50;;
65879;SDS011;52661;51.364;6.054;2023-04-06T09:37:35;13.25;;;4.57;;
65879;SDS011;52661;51.364;6.054;2023-04-06T09:40:04;14.27;;;3.57;;
65879;SDS011;52661;51.364;6.054;2023-04-06T09:42:30;13.32;;;5.95;;
65879;SDS011;52661;51.364;6.054;2023-04-06T09:44:56;15.43;;;6.70;;
65879;SDS011;52661;51.364;6.054;2023-04-06T09:47:21;19.13;;;6.10;;
65879;SDS011;52661;51.364;6.054;2023-04-06T09:49:48;13.07;;;6.22;;
65879;SDS011;52661;51.364;6.054;2023-04-06T09:52:15;14.02;;;4.88;;
65879;SDS011;52661;51.364;6.054;2023-04-06T09:54:42;16.92;;;5.18;;
65879;SDS011;52661;51.364;6.054;2023-04-06T09:57:25;14.05;;;5.20;;
65879;SDS011;52661;51.364;6.054;2023-04-06T10:00:09;9.90;;;3.67;;
65879;SDS011;52661;51.364;6.054;2023-04-06T10:02:48;13.98;;;4.95;;
65879;SDS011;52661;51.364;6.054;2023-04-06T10:05:22;15.77;;;5.38;;
65879;SDS011;52661;51.364;6.054;2023-04-06T10:08:03;13.65;;;4.60;;
65879;SDS011;52661;51.364;6.054;2023-04-06T10:10:32;13.30;;;4.75;;
65879;SDS011;52661;51.364;6.054;2023-04-06T10:12:57;16.55;;;7.45;;
65879;SDS011;52661;51.364;6.054;2023-04-06T10:15:23;16.90;;;5.03;;
65879;SDS011;52661;51.364;6.054;2023-04-06T10:17:49;13.27;;;5.07;;
65879;SDS011;52661;51.364;6.054;2023-04-06T10:20:17;13.18;;;5.18;;
65879;SDS011;52661;51.364;6.054;2023-04-06T10:25:31;12.13;;;5.45;;
65879;SDS011;52661;51.364;6.054;2023-04-06T10:28:07;16.17;;;6.13;;
65879;SDS011;52661;51.364;6.054;2023-04-06T10:30:34;18.20;;;5.30;;
65879;SDS011;52661;51.364;6.054;2023-04-06T10:33:15;13.85;;;5.90;;
65879;SDS011;52661;51.364;6.054;2023-04-06T10:35:42;9.95;;;4.10;;
65879;SDS011;52661;51.364;6.054;2023-04-06T10:38:08;15.50;;;5.65;;
65879;SDS011;52661;51.364;6.054;2023-04-06T10:40:37;13.60;;;6.60;;
65879;SDS011;52661;51.364;6.054;2023-04-06T10:43:11;15.70;;;5.47;;
65879;SDS011;52661;51.364;6.054;2023-04-06T10:45:38;13.15;;;4.88;;
65879;SDS011;52661;51.364;6.054;2023-04-06T10:48:14;16.67;;;4.47;;
65879;SDS011;52661;51.364;6.054;2023-04-06T10:50:40;14.40;;;5.28;;
65879;SDS011;52661;51.364;6.054;2023-04-06T10:53:07;13.07;;;5.82;;
65879;SDS011;52661;51.364;6.054;2023-04-06T10:55:32;13.30;;;5.23;;
65879;SDS011;52661;51.364;6.054;2023-04-06T10:57:57;13.02;;;4.38;;
65879;SDS011;52661;51.364;6.054;2023-04-06T11:00:23;10.63;;;4.13;;
65879;SDS011;52661;51.364;6.054;2023-04-06T11:02:49;11.10;;;4.65;;
65879;SDS011;52661;51.364;6.054;2023-04-06T11:05:14;15.07;;;5.53;;
65879;SDS011;52661;51.364;6.054;2023-04-06T11:07:40;12.05;;;4.97;;
65879;SDS011;52661;51.364;6.054;2023-04-06T11:10:06;9.77;;;4.25;;
65879;SDS011;52661;51.364;6.054;2023-04-06T11:12:32;9.27;;;3.28;;
65879;SDS011;52661;51.364;6.054;2023-04-06T11:14:58;12.23;;;4.20;;
65879;SDS011;52661;51.364;6.054;2023-04-06T11:17:35;9.77;;;3.58;;
65879;SDS011;52661;51.364;6.054;2023-04-06T11:20:02;7.65;;;2.45;;
65879;SDS011;52661;51.364;6.054;2023-04-06T11:22:28;9.32;;;3.55;;
65879;SDS011;52661;51.364;6.054;2023-04-06T11:25:07;9.82;;;4.07;;
65879;SDS011;52661;51.364;6.054;2023-04-06T11:27:33;11.63;;;3.75;;
65879;SDS011;52661;51.364;6.054;2023-04-06T11:29:59;6.05;;;3.10;;
65879;SDS011;52661;51.364;6.054;2023-04-06T11:32:25;10.05;;;4.28;;
65879;SDS011;52661;51.364;6.054;2023-04-06T11:34:51;7.80;;;3.78;;
65879;SDS011;52661;51.364;6.054;2023-04-06T11:37:16;9.80;;;3.63;;
65879;SDS011;52661;51.364;6.054;2023-04-06T11:39:49;7.18;;;2.58;;
65879;SDS011;52661;51.364;6.054;2023-04-06T11:42:23;7.50;;;3.97;;
65879;SDS011;52661;51.364;6.054;2023-04-06T11:44:54;8.73;;;3.08;;
65879;SDS011;52661;51.364;6.054;2023-04-06T11:47:26;4.85;;;2.03;;
65879;SDS011;52661;51.364;6.054;2023-04-06T11:49:53;6.70;;;2.67;;
65879;SDS011;52661;51.364;6.054;2023-04-06T11:52:19;5.68;;;2.47;;
65879;SDS011;52661;51.364;6.054;2023-04-06T11:54:47;6.18;;;2.30;;
65879;SDS011;52661;51.364;6.054;2023-04-06T11:57:13;8.60;;;2.83;;
65879;SDS011;52661;51.364;6.054;2023-04-06T11:59:40;5.93;;;2.60;;
65879;SDS011;52661;51.364;6.054;2023-04-06T12:02:05;6.45;;;2.38;;
65879;SDS011;52661;51.364;6.054;2023-04-06T12:04:31;7.18;;;3.17;;
65879;SDS011;52661;51.364;6.054;2023-04-06T12:06:57;5.30;;;2.63;;
65879;SDS011;52661;51.364;6.054;2023-04-06T12:09:22;6.80;;;2.17;;
65879;SDS011;52661;51.364;6.054;2023-04-06T12:11:48;8.40;;;2.38;;
65879;SDS011;52661;51.364;6.054;2023-04-06T12:14:13;5.47;;;2.00;;
65879;SDS011;52661;51.364;6.054;2023-04-06T12:16:39;7.65;;;3.22;;
65879;SDS011;52661;51.364;6.054;2023-04-06T12:19:05;6.72;;;2.00;;
65879;SDS011;52661;51.364;6.054;2023-04-06T12:21:31;8.43;;;2.85;;
65879;SDS011;52661;51.364;6.054;2023-04-06T12:23:57;6.88;;;3.08;;
65879;SDS011;52661;51.364;6.054;2023-04-06T12:26:23;6.68;;;2.70;;
65879;SDS011;52661;51.364;6.054;2023-04-06T12:28:48;8.98;;;2.90;;
65879;SDS011;52661;51.364;6.054;2023-04-06T12:31:15;7.78;;;3.10;;
65879;SDS011;52661;51.364;6.054;2023-04-06T12:33:41;9.35;;;2.88;;
65879;SDS011;52661;51.364;6.054;2023-04-06T12:36:13;7.97;;;2.60;;
65879;SDS011;52661;51.364;6.054;2023-04-06T12:38:40;10.07;;;3.78;;
65879;SDS011;52661;51.364;6.054;2023-04-06T12:41:10;10.30;;;3.20;;
65879;SDS011;52661;51.364;6.054;2023-04-06T12:43:36;6.65;;;2.95;;
65879;SDS011;52661;51.364;6.054;2023-04-06T12:46:01;11.63;;;4.10;;
65879;SDS011;52661;51.364;6.054;2023-04-06T12:48:26;6.80;;;3.00;;
65879;SDS011;52661;51.364;6.054;2023-04-06T12:51:02;8.52;;;3.45;;
65879;SDS011;52661;51.364;6.054;2023-04-06T12:53:29;9.27;;;3.00;;
65879;SDS011;52661;51.364;6.054;2023-04-06T12:55:55;7.93;;;3.00;;
65879;SDS011;52661;51.364;6.054;2023-04-06T12:58:21;8.20;;;3.13;;
65879;SDS011;52661;51.364;6.054;2023-04-06T13:00:48;10.93;;;3.55;;
65879;SDS011;52661;51.364;6.054;2023-04-06T13:03:15;10.23;;;4.28;;
65879;SDS011;52661;51.364;6.054;2023-04-06T13:05:43;6.72;;;2.95;;
65879;SDS011;52661;51.364;6.054;2023-04-06T13:08:10;8.40;;;3.05;;
65879;SDS011;52661;51.364;6.054;2023-04-06T13:10:35;9.25;;;3.40;;
65879;SDS011;52661;51.364;6.054;2023-04-06T13:13:00;5.03;;;1.90;;
65879;SDS011;52661;51.364;6.054;2023-04-06T13:15:26;6.73;;;2.43;;
65879;SDS011;52661;51.364;6.054;2023-04-06T13:17:51;5.75;;;2.55;;
65879;SDS011;52661;51.364;6.054;2023-04-06T13:20:16;10.73;;;4.43;;
65879;SDS011;52661;51.364;6.054;2023-04-06T13:22:42;8.68;;;3.20;;
65879;SDS011;52661;51.364;6.054;2023-04-06T13:25:07;6.57;;;2.47;;
65879;SDS011;52661;51.364;6.054;2023-04-06T13:27:33;10.80;;;4.00;;
65879;SDS011;52661;51.364;6.054;2023-04-06T13:30:00;10.13;;;3.58;;
65879;SDS011;52661;51.364;6.054;2023-04-06T13:32:26;8.52;;;3.72;;
65879;SDS011;52661;51.364;6.054;2023-04-06T13:34:53;11.07;;;4.32;;
65879;SDS011;52661;51.364;6.054;2023-04-06T13:37:19;10.60;;;3.88;;
65879;SDS011;52661;51.364;6.054;2023-04-06T13:39:45;8.73;;;3.85;;
65879;SDS011;52661;51.364;6.054;2023-04-06T13:42:10;9.57;;;3.57;;
65879;SDS011;52661;51.364;6.054;2023-04-06T13:44:35;9.73;;;3.60;;
65879;SDS011;52661;51.364;6.054;2023-04-06T13:47:00;11.47;;;4.23;;
65879;SDS011;52661;51.364;6.054;2023-04-06T13:49:26;12.23;;;3.97;;
65879;SDS011;52661;51.364;6.054;2023-04-06T13:51:51;8.63;;;2.97;;
65879;SDS011;52661;51.364;6.054;2023-04-06T13:54:17;11.77;;;4.77;;
65879;SDS011;52661;51.364;6.054;2023-04-06T13:56:42;11.27;;;4.10;;
65879;SDS011;52661;51.364;6.054;2023-04-06T13:59:07;13.37;;;5.97;;
65879;SDS011;52661;51.364;6.054;2023-04-06T14:01:32;11.63;;;4.75;;
65879;SDS011;52661;51.364;6.054;2023-04-06T14:03:58;11.23;;;4.17;;
65879;SDS011;52661;51.364;6.054;2023-04-06T14:06:23;9.43;;;3.97;;
65879;SDS011;52661;51.364;6.054;2023-04-06T14:08:48;9.47;;;2.90;;
65879;SDS011;52661;51.364;6.054;2023-04-06T14:11:14;11.93;;;4.65;;
65879;SDS011;52661;51.364;6.054;2023-04-06T14:13:40;9.60;;;3.00;;
65879;SDS011;52661;51.364;6.054;2023-04-06T14:16:05;10.52;;;4.03;;
65879;SDS011;52661;51.364;6.054;2023-04-06T14:18:32;11.60;;;4.32;;
65879;SDS011;52661;51.364;6.054;2023-04-06T14:20:59;13.60;;;5.28;;
65879;SDS011;52661;51.364;6.054;2023-04-06T14:23:25;10.43;;;3.53;;
65879;SDS011;52661;51.364;6.054;2023-04-06T14:26:00;13.30;;;5.07;;
65879;SDS011;52661;51.364;6.054;2023-04-06T14:28:27;10.35;;;4.60;;
65879;SDS011;52661;51.364;6.054;2023-04-06T14:30:53;8.73;;;3.70;;
65879;SDS011;52661;51.364;6.054;2023-04-06T14:33:18;11.73;;;5.80;;